Time;durP1;ratioP1;P1;durP2;ratioP2;P2;SDS_P1;SDS_P2;PMS_P1;PMS_P2;Temp;Humidity;BMP_temperature;BMP_pressure;BME280_temperature;BME280_humidity;BME280_pressure;Samples;Min_cycle;Max_cycle;Signal;HPM_P1;HPM_P2
2022/01/07 00:01:21;;;;;;;4.50;1.80;;;;;;;-141.50;100.00;63355.56;5092552;28;20044;-80
2022/01/07 00:03:48;;;;;;;5.75;1.80;;;;;;;-141.50;100.00;63355.56;5092578;28;20077;-81
2022/01/07 00:06:14;;;;;;;7.10;2.13;;;;;;;-141.50;100.00;63355.56;5094479;28;20048;-81
2022/01/07 00:08:41;;;;;;;4.90;1.38;;;;;;;-141.50;100.00;63355.56;5094201;28;20051;-81
2022/01/07 00:11:08;;;;;;;6.22;2.05;;;;;;;-141.50;100.00;63355.56;5090321;28;20048;-81
2022/01/07 00:13:35;;;;;;;6.40;2.00;;;;;;;-141.50;100.00;63355.56;5092800;28;20489;-80
2022/01/07 00:16:01;;;;;;;12.30;1.75;;;;;;;-141.50;100.00;63355.56;5093703;28;20055;-81
2022/01/07 00:18:28;;;;;;;8.80;1.98;;;;;;;-141.50;100.00;63355.56;5090030;28;20052;-80
2022/01/07 00:20:56;;;;;;;4.38;1.60;;;;;;;-141.50;100.00;63355.56;5091795;28;20044;-80
2022/01/07 00:23:23;;;;;;;8.07;1.92;;;;;;;-141.50;100.00;63355.56;5092712;28;20131;-80
2022/01/07 00:25:50;;;;;;;8.55;1.90;;;;;;;-141.50;100.00;63355.56;5094474;28;20059;-80
2022/01/07 00:28:19;;;;;;;10.05;2.00;;;;;;;-141.50;100.00;63355.56;5093340;28;20048;-80
2022/01/07 00:30:46;;;;;;;7.57;2.00;;;;;;;-141.50;100.00;63355.56;5094257;28;20489;-80
2022/01/07 00:33:27;;;;;;;8.82;1.73;;;;;;;-141.50;100.00;63355.56;5091066;28;20102;-81
2022/01/07 00:35:56;;;;;;;11.05;2.03;;;;;;;-141.50;100.00;63355.56;5093613;28;20500;-80
2022/01/07 00:38:23;;;;;;;6.00;1.50;;;;;;;-141.50;100.00;63355.56;5092462;28;20055;-81
2022/01/07 00:40:50;;;;;;;6.57;1.40;;;;;;;-141.50;100.00;63355.56;5053994;28;1128113;-80
2022/01/07 00:43:16;;;;;;;6.70;1.60;;;;;;;-141.50;100.00;63355.56;5093936;28;20151;-81
2022/01/07 00:45:43;;;;;;;3.75;1.42;;;;;;;-141.50;100.00;63355.56;5094214;28;20116;-79
2022/01/07 00:48:10;;;;;;;6.78;1.70;;;;;;;-141.50;100.00;63355.56;5091897;28;20052;-79
2022/01/07 00:50:36;;;;;;;4.85;1.40;;;;;;;-141.50;100.00;63355.56;5092673;28;20055;-79
2022/01/07 00:53:03;;;;;;;7.72;1.50;;;;;;;-141.50;100.00;63355.56;5092687;28;20043;-80
2022/01/07 00:55:30;;;;;;;9.10;1.58;;;;;;;-141.50;100.00;63355.56;5098771;28;20648;-81
2022/01/07 00:57:56;;;;;;;10.40;1.60;;;;;;;-141.50;100.00;63355.56;5102419;28;20048;-79
2022/01/07 01:00:35;;;;;;;8.73;1.60;;;;;;;-141.50;100.00;63355.56;5099148;28;20534;-79
2022/01/07 01:03:03;;;;;;;7.35;1.30;;;;;;;-141.50;100.00;63355.56;5100655;28;20131;-80
2022/01/07 01:05:32;;;;;;;4.72;1.33;;;;;;;-141.50;100.00;63355.56;5099108;28;20139;-80
2022/01/07 01:07:59;;;;;;;10.48;1.70;;;;;;;-141.50;100.00;63355.56;5101701;28;20044;-80
2022/01/07 01:10:26;;;;;;;4.78;1.58;;;;;;;-141.50;100.00;63355.56;5094566;28;20050;-82
2022/01/07 01:12:54;;;;;;;9.18;1.58;;;;;;;-141.50;100.00;63355.56;5092806;28;20044;-81
2022/01/07 01:15:24;;;;;;;8.43;1.60;;;;;;;-141.50;100.00;63355.56;5095200;28;20051;-81
2022/01/07 01:17:52;;;;;;;4.07;1.17;;;;;;;-141.50;100.00;63355.56;5093935;28;20083;-81
2022/01/07 01:20:20;;;;;;;8.13;1.45;;;;;;;-141.50;100.00;63355.56;5093343;28;20048;-79
2022/01/07 01:22:47;;;;;;;6.50;1.50;;;;;;;-141.50;100.00;63355.56;5094895;28;20047;-80
2022/01/07 01:25:14;;;;;;;4.88;1.27;;;;;;;-141.50;100.00;63355.56;5095533;28;20105;-80
2022/01/07 01:27:41;;;;;;;9.25;1.58;;;;;;;-141.50;100.00;63355.56;5095666;28;20063;-80
2022/01/07 01:30:27;;;;;;;6.20;1.42;;;;;;;-141.50;100.00;63355.56;5094622;28;20048;-81
2022/01/07 01:32:54;;;;;;;10.32;1.40;;;;;;;-141.50;100.00;63355.56;5099066;28;20051;-79
2022/01/07 01:35:22;;;;;;;6.65;1.40;;;;;;;-141.50;100.00;63355.56;5114559;28;20063;-80
2022/01/07 01:37:49;;;;;;;11.98;1.40;;;;;;;-141.50;100.00;63355.56;5115346;28;20079;-80
2022/01/07 01:40:17;;;;;;;6.15;1.98;;;;;;;-141.50;100.00;63355.56;5096758;28;20052;-79
2022/01/07 01:42:45;;;;;;;8.68;1.67;;;;;;;-141.50;100.00;63355.56;5093081;28;20052;-80
2022/01/07 01:45:15;;;;;;;5.22;1.42;;;;;;;-141.50;100.00;63355.56;5093236;28;20048;-80
2022/01/07 01:47:42;;;;;;;7.32;1.77;;;;;;;-141.50;100.00;63355.56;5091996;28;20499;-79
2022/01/07 01:50:09;;;;;;;10.27;1.50;;;;;;;-141.50;100.00;63355.56;5093305;28;20048;-80
2022/01/07 01:52:36;;;;;;;8.50;1.42;;;;;;;-141.50;100.00;63355.56;5090881;28;20052;-80
2022/01/07 01:55:24;;;;;;;11.55;1.45;;;;;;;-141.50;100.00;63355.56;5074951;28;20109;-82
2022/01/07 01:57:56;;;;;;;7.68;1.65;;;;;;;-141.50;100.00;63355.56;5092834;28;20044;-82
2022/01/07 02:00:25;;;;;;;10.10;1.60;;;;;;;-141.50;100.00;63355.56;5092603;28;20147;-77
2022/01/07 02:02:51;;;;;;;7.35;1.70;;;;;;;-141.50;100.00;63355.56;5092098;28;20050;-81
2022/01/07 02:05:18;;;;;;;3.78;1.45;;;;;;;-141.50;100.00;63355.56;5091679;28;20559;-81
2022/01/07 02:07:45;;;;;;;6.15;1.40;;;;;;;-141.50;100.00;63355.56;5092477;28;20070;-80
2022/01/07 02:10:14;;;;;;;8.02;1.30;;;;;;;-141.50;100.00;63355.56;5098133;28;20097;-79
2022/01/07 02:12:42;;;;;;;8.23;1.50;;;;;;;-141.50;100.00;63355.56;5101850;28;20788;-78
2022/01/07 02:15:11;;;;;;;8.95;1.40;;;;;;;-141.50;100.00;63355.56;5104683;28;20082;-80
2022/01/07 02:17:43;;;;;;;5.60;1.67;;;;;;;-141.50;100.00;63355.56;5102464;28;20052;-80
2022/01/07 02:20:12;;;;;;;6.03;1.45;;;;;;;-141.50;100.00;63355.56;5098651;28;20044;-81
2022/01/07 02:22:47;;;;;;;7.00;1.38;;;;;;;-141.50;100.00;63355.56;5102293;28;20059;-80
2022/01/07 02:25:14;;;;;;;8.18;1.92;;;;;;;-141.50;100.00;63355.56;5100176;28;20051;-80
2022/01/07 02:27:42;;;;;;;6.78;1.60;;;;;;;-141.50;100.00;63355.56;5098069;28;20147;-79
2022/01/07 02:30:12;;;;;;;6.50;1.80;;;;;;;-141.50;100.00;63355.56;5097009;28;20048;-80
2022/01/07 02:32:39;;;;;;;7.65;2.00;;;;;;;-141.50;100.00;63355.56;5096532;28;20043;-80
2022/01/07 02:35:08;;;;;;;13.10;1.77;;;;;;;-141.50;100.00;63355.56;5100707;28;20048;-81
2022/01/07 02:37:36;;;;;;;8.30;1.75;;;;;;;-141.50;100.00;63355.56;5105198;28;20052;-79
2022/01/07 02:40:05;;;;;;;11.40;1.80;;;;;;;-141.50;100.00;63355.56;5102306;28;20040;-79
2022/01/07 02:42:31;;;;;;;6.75;1.45;;;;;;;-141.50;100.00;63355.56;5103593;28;20052;-78
2022/01/07 02:44:58;;;;;;;5.57;1.65;;;;;;;-141.50;100.00;63355.56;5103681;28;20494;-80
2022/01/07 02:47:30;;;;;;;7.65;1.48;;;;;;;-141.50;100.00;63355.56;5102514;28;20074;-81
2022/01/07 02:50:04;;;;;;;8.10;1.92;;;;;;;-141.50;100.00;63355.56;5094534;28;20130;-81
2022/01/07 02:52:31;;;;;;;9.88;1.73;;;;;;;-141.50;100.00;63355.56;5091794;28;20060;-81
2022/01/07 02:54:58;;;;;;;6.05;1.70;;;;;;;-141.50;100.00;63355.56;5092366;28;20049;-80
2022/01/07 02:57:24;;;;;;;9.02;1.60;;;;;;;-141.50;100.00;63355.56;5089998;28;20044;-80
2022/01/07 02:59:51;;;;;;;5.15;1.52;;;;;;;-141.50;100.00;63355.56;5090847;28;20077;-81
2022/01/07 03:02:17;;;;;;;11.00;2.08;;;;;;;-141.50;100.00;63355.56;5089510;28;20066;-80
2022/01/07 03:04:44;;;;;;;8.48;1.67;;;;;;;-141.50;100.00;63355.56;5089674;28;20139;-80
2022/01/07 03:07:11;;;;;;;5.47;1.58;;;;;;;-141.50;100.00;63355.56;5092185;28;20084;-80
2022/01/07 03:09:38;;;;;;;10.27;1.70;;;;;;;-141.50;100.00;63355.56;5090534;28;20048;-80
2022/01/07 03:12:06;;;;;;;10.30;2.13;;;;;;;-141.50;100.00;63355.56;5089075;28;20048;-80
2022/01/07 03:14:32;;;;;;;7.25;1.73;;;;;;;-141.50;100.00;63355.56;5089072;28;20044;-79
2022/01/07 03:17:06;;;;;;;7.32;1.77;;;;;;;-141.50;100.00;63355.56;5077201;28;20049;-79
2022/01/07 03:19:33;;;;;;;11.52;1.90;;;;;;;-141.50;100.00;63355.56;5067706;28;20525;-79
2022/01/07 03:22:00;;;;;;;8.95;1.92;;;;;;;-141.50;100.00;63355.56;5068916;28;20063;-81
2022/01/07 03:24:27;;;;;;;5.55;1.80;;;;;;;-141.50;100.00;63355.56;5068953;28;20083;-80
2022/01/07 03:26:54;;;;;;;8.13;1.90;;;;;;;-141.50;100.00;63355.56;5070992;28;20071;-80
2022/01/07 03:29:20;;;;;;;6.32;2.35;;;;;;;-141.50;100.00;63355.56;5068720;28;20105;-80
2022/01/07 03:31:47;;;;;;;9.00;2.00;;;;;;;-141.50;100.00;63355.56;5070731;28;20075;-81
2022/01/07 03:34:13;;;;;;;14.40;2.13;;;;;;;-141.50;100.00;63355.56;5068583;28;20131;-79
2022/01/07 03:36:40;;;;;;;9.25;1.60;;;;;;;-141.50;100.00;63355.56;5074262;28;20060;-80
2022/01/07 03:39:08;;;;;;;6.85;1.70;;;;;;;-141.50;100.00;63355.56;5072569;28;20048;-79
2022/01/07 03:41:34;;;;;;;9.80;2.10;;;;;;;-141.50;100.00;63355.56;5073805;28;20083;-80
2022/01/07 03:44:01;;;;;;;11.43;2.17;;;;;;;-141.50;100.00;63355.56;5071785;28;20048;-80
2022/01/07 03:46:28;;;;;;;9.77;2.22;;;;;;;-141.50;100.00;63355.56;5073661;28;20174;-80
2022/01/07 03:48:54;;;;;;;10.23;2.20;;;;;;;-141.50;100.00;63355.56;5072439;28;20104;-81
2022/01/07 03:51:21;;;;;;;11.52;2.67;;;;;;;-141.50;100.00;63355.56;5071852;28;20045;-79
2022/01/07 03:53:48;;;;;;;8.20;1.95;;;;;;;-141.50;100.00;63355.56;5072354;28;20049;-77
2022/01/07 03:56:17;;;;;;;11.00;2.00;;;;;;;-141.50;100.00;63355.56;5072928;28;20072;-77
2022/01/07 03:58:50;;;;;;;9.70;2.20;;;;;;;-141.50;100.00;63355.56;5071433;28;20048;-79
2022/01/07 04:01:17;;;;;;;6.60;2.40;;;;;;;-141.50;100.00;63355.56;5075395;28;20123;-80
2022/01/07 04:03:44;;;;;;;7.00;2.17;;;;;;;-141.50;100.00;63355.56;5073964;28;20138;-81
2022/01/07 04:06:20;;;;;;;4.03;2.00;;;;;;;-141.50;100.00;63355.56;5075700;28;20052;-80
2022/01/07 04:08:48;;;;;;;9.35;2.38;;;;;;;-141.50;100.00;63355.56;5074052;28;20088;-80
2022/01/07 04:11:17;;;;;;;6.70;2.10;;;;;;;-141.50;100.00;63355.56;5071992;28;20055;-81
2022/01/07 04:13:46;;;;;;;11.07;1.92;;;;;;;-141.50;100.00;63355.56;5074452;28;20079;-80
2022/01/07 04:16:14;;;;;;;10.13;2.13;;;;;;;-141.50;100.00;63355.56;5075036;28;20056;-80
2022/01/07 04:18:41;;;;;;;8.35;2.30;;;;;;;-141.50;100.00;63355.56;5074056;28;20052;-80
2022/01/07 04:21:07;;;;;;;6.05;2.20;;;;;;;-141.50;100.00;63355.56;5082038;28;20048;-79
2022/01/07 04:23:34;;;;;;;7.88;2.30;;;;;;;-141.50;100.00;63355.56;5086389;28;20056;-77
2022/01/07 04:26:01;;;;;;;10.95;2.13;;;;;;;-141.50;100.00;63355.56;5086335;28;20071;-78
2022/01/07 04:28:28;;;;;;;10.82;2.53;;;;;;;-141.50;100.00;63355.56;5086806;28;20517;-78
2022/01/07 04:30:54;;;;;;;9.70;2.63;;;;;;;-141.50;100.00;63355.56;5082050;28;20055;-80
2022/01/07 04:33:25;;;;;;;11.43;2.53;;;;;;;-141.50;100.00;63355.56;5071315;28;20049;-79
2022/01/07 04:35:58;;;;;;;8.18;2.30;;;;;;;-141.50;100.00;63355.56;5072640;28;20114;-79
2022/01/07 04:38:25;;;;;;;11.30;2.38;;;;;;;-141.50;100.00;63355.56;5072574;28;20076;-81
2022/01/07 04:40:52;;;;;;;13.23;2.40;;;;;;;-141.50;100.00;63355.56;5074786;28;20045;-79
2022/01/07 04:43:18;;;;;;;7.70;2.08;;;;;;;-141.50;100.00;63355.56;5075275;28;20056;-80
2022/01/07 04:45:45;;;;;;;8.13;2.53;;;;;;;-141.50;100.00;63355.56;5073846;28;20049;-80
2022/01/07 04:48:12;;;;;;;10.55;2.17;;;;;;;-141.50;100.00;63355.56;5073488;28;20056;-79
2022/01/07 04:50:39;;;;;;;7.70;2.17;;;;;;;-141.50;100.00;63355.56;5075702;28;20048;-81
2022/01/07 04:53:07;;;;;;;12.45;2.65;;;;;;;-141.50;100.00;63355.56;5084996;28;20043;-78
2022/01/07 04:55:38;;;;;;;9.18;2.50;;;;;;;-141.50;100.00;63355.56;5097069;28;20112;-81
2022/01/07 04:58:07;;;;;;;15.60;2.28;;;;;;;-141.50;100.00;63355.56;5091041;28;20048;-79
2022/01/07 05:00:34;;;;;;;8.25;2.53;;;;;;;-141.50;100.00;63355.56;5071514;28;20098;-79
2022/01/07 05:03:01;;;;;;;11.27;2.45;;;;;;;-141.50;100.00;63355.56;5071432;28;20059;-81
2022/01/07 05:05:28;;;;;;;13.15;2.58;;;;;;;-141.50;100.00;63355.56;5073679;28;20060;-80
2022/01/07 05:07:55;;;;;;;14.45;2.40;;;;;;;-141.50;100.00;63355.56;5073470;28;20821;-79
2022/01/07 05:10:22;;;;;;;10.77;2.85;;;;;;;-141.50;100.00;63355.56;5073919;28;20416;-79
2022/01/07 05:12:49;;;;;;;14.27;2.45;;;;;;;-141.50;100.00;63355.56;5070864;28;20053;-81
2022/01/07 05:15:17;;;;;;;10.27;2.60;;;;;;;-141.50;100.00;63355.56;5072981;28;20044;-80
2022/01/07 05:17:44;;;;;;;9.27;2.40;;;;;;;-141.50;100.00;63355.56;5072104;28;20306;-80
2022/01/07 05:20:13;;;;;;;14.05;2.63;;;;;;;-141.50;100.00;63355.56;5070886;28;20048;-80
2022/01/07 05:22:41;;;;;;;12.23;2.92;;;;;;;-141.50;100.00;63355.56;5070539;28;20058;-80
2022/01/07 05:25:08;;;;;;;10.82;3.33;;;;;;;-141.50;100.00;63355.56;5072825;28;20098;-80
2022/01/07 05:27:35;;;;;;;12.68;2.75;;;;;;;-141.50;100.00;63355.56;5085300;28;20052;-79
2022/01/07 05:30:05;;;;;;;12.23;3.20;;;;;;;-141.50;100.00;63355.56;5085521;28;20580;-79
2022/01/07 05:32:31;;;;;;;11.65;3.58;;;;;;;-141.50;100.00;63355.56;5086716;28;20054;-79
2022/01/07 05:34:58;;;;;;;14.30;3.13;;;;;;;-141.50;100.00;63355.56;5086681;28;20077;-80
2022/01/07 05:37:34;;;;;;;8.75;2.80;;;;;;;-141.50;100.00;63355.56;5090547;28;20056;-80
2022/01/07 05:40:02;;;;;;;11.05;3.15;;;;;;;-141.50;100.00;63355.56;5085591;28;20454;-80
2022/01/07 05:42:29;;;;;;;10.70;2.80;;;;;;;-141.50;100.00;63355.56;5094433;28;20048;-79
2022/01/07 05:44:57;;;;;;;10.02;2.85;;;;;;;-141.50;100.00;63355.56;5094079;28;20048;-80
2022/01/07 05:47:26;;;;;;;11.73;3.53;;;;;;;-141.50;100.00;63355.56;5077276;28;20044;-80
2022/01/07 05:49:53;;;;;;;13.15;3.30;;;;;;;-141.50;100.00;63355.56;5076417;28;20059;-80
2022/01/07 05:52:20;;;;;;;13.45;3.45;;;;;;;-141.50;100.00;63355.56;5071027;28;20075;-81
2022/01/07 05:54:48;;;;;;;14.95;3.70;;;;;;;-141.50;100.00;63355.56;5070808;28;20044;-80
2022/01/07 05:57:15;;;;;;;11.65;3.63;;;;;;;-141.50;100.00;63355.56;5072194;28;20441;-80
2022/01/07 05:59:41;;;;;;;14.85;3.50;;;;;;;-141.50;100.00;63355.56;5071392;28;20063;-81
2022/01/07 06:04:46;;;;;;;12.82;3.60;;;;;;;-141.50;100.00;63355.56;3213363;22;20040;-78
2022/01/07 06:07:14;;;;;;;16.15;3.60;;;;;;;-141.50;100.00;63355.56;5077197;28;20052;-79
2022/01/07 06:09:41;;;;;;;12.77;3.67;;;;;;;-141.50;100.00;63355.56;5099930;28;20104;-80
2022/01/07 06:12:09;;;;;;;18.95;3.90;;;;;;;-141.50;100.00;63355.56;5073987;28;20045;-79
2022/01/07 06:14:36;;;;;;;10.82;3.53;;;;;;;-141.50;100.00;63355.56;5049630;28;20049;-79
2022/01/07 06:17:02;;;;;;;10.75;3.10;;;;;;;-141.50;100.00;63355.56;5060935;28;20053;-79
2022/01/07 06:19:29;;;;;;;10.05;3.47;;;;;;;-141.50;100.00;63355.56;5034757;28;20052;-80
2022/01/07 06:21:55;;;;;;;14.07;3.65;;;;;;;-141.50;100.00;63355.56;5058644;28;20048;-79
2022/01/07 06:24:22;;;;;;;12.65;4.28;;;;;;;-141.50;100.00;63355.56;5069964;28;20052;-80
2022/01/07 06:26:48;;;;;;;14.45;4.50;;;;;;;-141.50;100.00;63355.56;5071988;28;20079;-79
2022/01/07 06:29:15;;;;;;;13.32;3.53;;;;;;;-141.50;100.00;63355.56;5050015;28;20511;-79
2022/01/07 06:31:41;;;;;;;13.38;3.92;;;;;;;-141.50;100.00;63355.56;5052379;28;20107;-79
2022/01/07 06:34:08;;;;;;;12.77;3.95;;;;;;;-141.50;100.00;63355.56;5033257;28;20139;-79
2022/01/07 06:36:34;;;;;;;12.82;3.58;;;;;;;-141.50;100.00;63355.56;5032475;28;20110;-79
2022/01/07 06:39:02;;;;;;;13.30;4.10;;;;;;;-141.50;100.00;63355.56;5048394;28;20057;-79
2022/01/07 06:41:28;;;;;;;12.30;3.38;;;;;;;-141.50;100.00;63355.56;5032155;28;20049;-78
2022/01/07 06:43:55;;;;;;;15.13;4.10;;;;;;;-141.50;100.00;63355.56;5047406;28;20459;-80
2022/01/07 06:46:21;;;;;;;13.30;3.90;;;;;;;-141.50;100.00;63355.56;5049544;28;20102;-79
2022/01/07 06:48:48;;;;;;;10.70;3.63;;;;;;;-141.50;100.00;63355.56;5063533;28;20383;-79
2022/01/07 06:51:15;;;;;;;15.82;3.88;;;;;;;-141.50;100.00;63355.56;5070349;28;20337;-79
2022/01/07 06:53:41;;;;;;;14.43;4.07;;;;;;;-141.50;100.00;63355.56;5055637;28;20130;-80
2022/01/07 06:56:08;;;;;;;19.40;4.30;;;;;;;-141.50;100.00;63355.56;5049014;28;20088;-79
2022/01/07 06:58:35;;;;;;;15.68;4.07;;;;;;;-141.50;100.00;63355.56;5054903;28;20135;-79
2022/01/07 07:01:01;;;;;;;16.42;3.88;;;;;;;-141.50;100.00;63355.56;5066729;28;20113;-77
2022/01/07 07:03:28;;;;;;;10.77;3.47;;;;;;;-141.50;100.00;63355.56;5068269;28;20052;-78
2022/01/07 07:05:55;;;;;;;12.45;3.85;;;;;;;-141.50;100.00;63355.56;5039175;28;20072;-76
2022/01/07 07:08:21;;;;;;;13.70;3.72;;;;;;;-141.50;100.00;63355.56;5040536;28;20092;-79
2022/01/07 07:10:47;;;;;;;10.82;3.42;;;;;;;-141.50;100.00;63355.56;5058235;28;20083;-79
2022/01/07 07:13:14;;;;;;;14.07;3.45;;;;;;;-141.50;100.00;63355.56;5070553;28;20117;-79
2022/01/07 07:15:41;;;;;;;13.48;3.47;;;;;;;-141.50;100.00;63355.56;5076647;28;20060;-79
2022/01/07 07:18:07;;;;;;;12.35;3.30;;;;;;;-141.50;100.00;63355.56;5048556;28;21113;-79
2022/01/07 07:20:34;;;;;;;12.20;3.47;;;;;;;-141.50;100.00;63355.56;5068918;28;20048;-80
2022/01/07 07:23:00;;;;;;;10.30;3.33;;;;;;;-141.50;100.00;63355.56;5054171;28;20089;-79
2022/01/07 07:25:27;;;;;;;10.00;3.50;;;;;;;-141.50;100.00;63355.56;5059123;28;20053;-78
2022/01/07 07:27:53;;;;;;;11.82;3.15;;;;;;;-141.50;100.00;63355.56;5076227;28;20049;-78
2022/01/07 07:30:20;;;;;;;12.02;3.45;;;;;;;-141.50;100.00;63355.56;5071253;28;20091;-77
2022/01/07 07:32:48;;;;;;;10.63;3.05;;;;;;;-141.50;100.00;63355.56;5082645;28;20044;-80
2022/01/07 07:37:42;;;;;;;11.05;3.50;;;;;;;-141.50;100.00;63355.56;5096381;28;20536;-78
2022/01/07 07:40:08;;;;;;;9.10;2.95;;;;;;;-141.50;100.00;63355.56;5097158;28;20074;-79
2022/01/07 07:42:35;;;;;;;8.38;2.92;;;;;;;-141.50;100.00;63355.56;5095771;28;20464;-79
2022/01/07 07:45:03;;;;;;;15.07;3.40;;;;;;;-141.50;100.00;63355.56;5095875;28;20056;-79
2022/01/07 07:47:30;;;;;;;14.25;3.60;;;;;;;-141.50;100.00;63355.56;5094139;28;20074;-78
2022/01/07 07:49:57;;;;;;;17.40;3.50;;;;;;;-141.50;100.00;63355.56;5086399;28;20060;-81
2022/01/07 07:52:23;;;;;;;16.92;4.75;;;;;;;-141.50;100.00;63355.56;5067455;28;20045;-78
2022/01/07 07:54:50;;;;;;;10.60;3.25;;;;;;;-141.50;100.00;63355.56;5061437;28;20049;-80
2022/01/07 07:57:16;;;;;;;17.58;3.17;;;;;;;-141.50;100.00;63355.56;5060870;28;20053;-80
2022/01/07 07:59:43;;;;;;;19.52;3.80;;;;;;;-141.50;100.00;63355.56;5057940;28;20427;-80
2022/01/07 08:02:09;;;;;;;12.07;3.53;;;;;;;-141.50;100.00;63355.56;5055357;28;20352;-78
2022/01/07 08:04:38;;;;;;;12.15;3.33;;;;;;;-141.50;100.00;63355.56;5054791;28;20149;-79
2022/01/07 08:07:04;;;;;;;10.60;3.30;;;;;;;-141.50;100.00;63355.56;5065914;28;20044;-79
2022/01/07 08:09:36;;;;;;;12.02;3.42;;;;;;;-141.50;100.00;63355.56;5051593;28;20057;-79
2022/01/07 08:12:17;;;;;;;11.70;3.00;;;;;;;-141.50;100.00;63355.56;5077384;28;20116;-80
2022/01/07 08:17:28;;;;;;;13.13;2.97;;;;;;;-141.50;100.00;63355.56;5079464;28;20053;-79
2022/01/07 08:19:55;;;;;;;10.73;3.03;;;;;;;-141.50;100.00;63355.56;5071600;28;20052;-79
2022/01/07 08:22:21;;;;;;;9.93;3.22;;;;;;;-141.50;100.00;63355.56;5082720;28;20087;-79
2022/01/07 08:24:48;;;;;;;13.80;3.35;;;;;;;-141.50;100.00;63355.56;5078295;28;20049;-80
2022/01/07 08:27:14;;;;;;;12.15;3.30;;;;;;;-141.50;100.00;63355.56;5062714;28;20052;-78
2022/01/07 08:30:09;;;;;;;8.55;2.90;;;;;;;-141.50;100.00;63355.56;5080093;28;20055;-81
2022/01/07 08:35:21;;;;;;;14.98;3.42;;;;;;;-141.50;100.00;63355.56;5079110;28;20124;-81
2022/01/07 08:37:48;;;;;;;12.20;3.58;;;;;;;-141.50;100.00;63355.56;5079521;28;20052;-80
2022/01/07 08:40:14;;;;;;;10.35;2.90;;;;;;;-141.50;100.00;63355.56;5079728;28;20056;-80
2022/01/07 08:42:41;;;;;;;11.68;2.97;;;;;;;-141.50;100.00;63355.56;5064809;28;20177;-81
2022/01/07 08:45:07;;;;;;;12.10;3.00;;;;;;;-141.50;100.00;63355.56;5077038;28;20074;-81
2022/01/07 08:47:34;;;;;;;9.25;3.10;;;;;;;-141.50;100.00;63355.56;5078013;28;20075;-80
2022/01/07 08:50:01;;;;;;;10.65;3.40;;;;;;;-141.50;100.00;63355.56;5083286;28;20045;-81
2022/01/07 08:52:27;;;;;;;6.72;3.03;;;;;;;-141.50;100.00;63355.56;5093421;28;20052;-81
2022/01/07 08:54:54;;;;;;;10.43;2.83;;;;;;;-141.50;100.00;63355.56;5093218;28;20059;-81
2022/01/07 08:57:20;;;;;;;10.75;3.05;;;;;;;-141.50;100.00;63355.56;5065079;28;20056;-81
2022/01/07 08:59:48;;;;;;;8.93;3.25;;;;;;;-141.50;100.00;63355.56;5074239;28;20542;-79
2022/01/07 09:02:15;;;;;;;14.63;3.78;;;;;;;-141.50;100.00;63355.56;5078799;28;20048;-81
2022/01/07 09:04:42;;;;;;;14.25;3.25;;;;;;;-141.50;100.00;63355.56;5076396;28;20048;-80
2022/01/07 09:07:08;;;;;;;10.93;3.25;;;;;;;-141.50;100.00;63355.56;5075500;28;20102;-81
2022/01/07 09:09:35;;;;;;;13.20;3.47;;;;;;;-141.50;100.00;63355.56;5059769;28;20037;-81
2022/01/07 09:12:04;;;;;;;13.35;3.30;;;;;;;-141.50;100.00;63355.56;5036915;28;20475;-80
2022/01/07 09:14:31;;;;;;;17.42;3.60;;;;;;;-141.50;100.00;63355.56;5073115;28;20114;-80
2022/01/07 09:16:58;;;;;;;10.43;3.20;;;;;;;-141.50;100.00;63355.56;5073749;28;20462;-80
2022/01/07 09:19:26;;;;;;;9.65;3.38;;;;;;;-141.50;100.00;63355.56;5078642;28;20048;-81
2022/01/07 09:21:52;;;;;;;13.77;4.00;;;;;;;-141.50;100.00;63355.56;5067885;28;20276;-82
2022/01/07 09:24:19;;;;;;;9.88;3.30;;;;;;;-141.50;100.00;63355.56;5057842;28;20056;-81
2022/01/07 09:26:45;;;;;;;13.18;3.13;;;;;;;-141.50;100.00;63355.56;5062730;28;20053;-80
2022/01/07 09:29:12;;;;;;;9.85;3.08;;;;;;;-141.50;100.00;63355.56;5075811;28;20056;-81
2022/01/07 09:31:38;;;;;;;11.38;3.22;;;;;;;-141.50;100.00;63355.56;5079642;28;20041;-81
2022/01/07 09:34:06;;;;;;;8.30;3.25;;;;;;;-141.50;100.00;63355.56;5061535;28;20048;-80
2022/01/07 09:36:53;;;;;;;9.40;3.20;;;;;;;-141.50;100.00;63355.56;5053334;28;20476;-80
2022/01/07 09:39:19;;;;;;;11.15;2.97;;;;;;;-141.50;100.00;63355.56;5045142;28;20049;-78
2022/01/07 09:41:46;;;;;;;14.80;3.60;;;;;;;-141.50;100.00;63355.56;5054394;28;20045;-81
2022/01/07 09:44:13;;;;;;;11.38;3.22;;;;;;;-141.50;100.00;63355.56;5075832;28;20048;-80
2022/01/07 09:46:40;;;;;;;11.32;3.28;;;;;;;-141.50;100.00;63355.56;5077633;28;20098;-82
2022/01/07 09:49:07;;;;;;;7.53;3.30;;;;;;;-141.50;100.00;63355.56;5056749;28;20052;-80
2022/01/07 09:51:37;;;;;;;9.25;3.22;;;;;;;-141.50;100.00;63355.56;5076683;28;20064;-79
2022/01/07 09:54:04;;;;;;;13.88;3.30;;;;;;;-141.50;100.00;63355.56;5057090;28;20326;-80
2022/01/07 09:56:31;;;;;;;12.93;3.33;;;;;;;-141.50;100.00;63355.56;5059151;28;20079;-81
2022/01/07 09:58:57;;;;;;;10.13;3.20;;;;;;;-141.50;100.00;63355.56;5057979;28;20053;-78
2022/01/07 10:01:25;;;;;;;8.77;2.70;;;;;;;-141.50;100.00;63355.56;5074761;28;20307;-81
2022/01/07 10:03:52;;;;;;;10.63;2.75;;;;;;;-141.50;100.00;63355.56;5073627;28;20057;-78
2022/01/07 10:06:25;;;;;;;12.68;3.17;;;;;;;-141.50;100.00;63355.56;5076416;28;20067;-80
2022/01/07 10:09:03;;;;;;;8.02;2.97;;;;;;;-141.50;100.00;63355.56;5056079;28;20451;-80
2022/01/07 10:11:30;;;;;;;10.52;3.20;;;;;;;-141.50;100.00;63355.56;5053621;28;20278;-80
2022/01/07 10:14:19;;;;;;;7.70;3.22;;;;;;;-141.50;100.00;63355.56;5053193;28;20086;-81
2022/01/07 10:16:50;;;;;;;10.20;3.10;;;;;;;-141.50;100.00;63355.56;5044491;28;20044;-80
2022/01/07 10:19:40;;;;;;;13.63;3.08;;;;;;;-141.50;100.00;63355.56;5054320;28;20184;-81
2022/01/07 10:22:12;;;;;;;9.93;3.10;;;;;;;-141.50;100.00;63355.56;5054972;28;20052;-80
2022/01/07 10:25:00;;;;;;;8.30;3.10;;;;;;;-141.50;100.00;63355.56;5055718;28;20048;-80
2022/01/07 10:27:36;;;;;;;12.73;3.15;;;;;;;-141.50;100.00;63355.56;5058091;28;20048;-80
2022/01/07 10:30:13;;;;;;;6.95;2.78;;;;;;;-141.50;100.00;63355.56;5040037;28;20084;-80
2022/01/07 10:32:40;;;;;;;7.72;2.92;;;;;;;-141.50;100.00;63355.56;5033223;28;20072;-82
2022/01/07 10:35:10;;;;;;;7.95;2.92;;;;;;;-141.50;100.00;63355.56;5052113;28;20346;-83
2022/01/07 10:37:46;;;;;;;7.20;2.42;;;;;;;-141.50;100.00;63355.56;5055737;28;20106;-82
2022/01/07 10:40:20;;;;;;;9.73;2.78;;;;;;;-141.50;100.00;63355.56;5056208;28;20106;-80
2022/01/07 10:42:47;;;;;;;10.83;3.07;;;;;;;-141.50;100.00;63355.56;5062146;28;20140;-80
2022/01/07 10:45:14;;;;;;;9.60;2.58;;;;;;;-141.50;100.00;63355.56;5078792;28;20351;-78
2022/01/07 10:47:40;;;;;;;7.78;3.00;;;;;;;-141.50;100.00;63355.56;5097640;28;20052;-80
2022/01/07 10:50:23;;;;;;;11.40;3.13;;;;;;;-141.50;100.00;63355.56;5099090;28;20098;-82
2022/01/07 10:52:50;;;;;;;12.23;3.00;;;;;;;-141.50;100.00;63355.56;5097852;28;20081;-81
2022/01/07 10:55:20;;;;;;;11.63;2.97;;;;;;;-141.50;100.00;63355.56;5091895;28;20071;-81
2022/01/07 10:57:50;;;;;;;9.50;3.25;;;;;;;-141.50;100.00;63355.56;5092836;28;20510;-81
2022/01/07 11:00:18;;;;;;;9.80;3.42;;;;;;;-141.50;100.00;63355.56;5086396;28;20088;-82
2022/01/07 11:02:46;;;;;;;10.65;3.83;;;;;;;-141.50;100.00;63355.56;5077688;28;20052;-81
2022/01/07 11:05:14;;;;;;;6.95;2.80;;;;;;;-141.50;100.00;63355.56;5078412;28;20070;-81
2022/01/07 11:07:41;;;;;;;9.68;3.30;;;;;;;-141.50;100.00;63355.56;5077487;28;20447;-82
2022/01/07 11:10:08;;;;;;;7.07;3.03;;;;;;;-141.50;100.00;63355.56;5078401;28;20400;-82
2022/01/07 11:12:35;;;;;;;5.72;3.13;;;;;;;-141.50;100.00;63355.56;5080506;28;20090;-81
2022/01/07 11:15:05;;;;;;;9.63;3.15;;;;;;;-141.50;100.00;63355.56;5065940;28;20064;-81
2022/01/07 11:17:35;;;;;;;8.43;3.40;;;;;;;-141.50;100.00;63355.56;5069517;28;20102;-80
2022/01/07 11:20:04;;;;;;;7.68;2.58;;;;;;;-141.50;100.00;63355.56;5067635;28;20049;-81